Time;durP1;ratioP1;P1;durP2;ratioP2;P2;SDS_P1;SDS_P2;PMS_P1;PMS_P2;Temp;Humidity;BMP_temperature;BMP_pressure;BME280_temperature;BME280_humidity;BME280_pressure;Samples;Min_cycle;Max_cycle;Signal;HPM_P1;HPM_P2
2022/08/15 12:00:10;;;;;;;11.08;4.47;;;;;;;31.26;48.95;99957.83;1642708;83;21246;-56
2022/08/15 12:03:35;;;;;;;8.68;5.15;;;;;;;31.15;48.76;99957.84;1627057;87;21732;-56
2022/08/15 12:07:05;;;;;;;7.40;4.40;;;;;;;31.06;48.67;99950.44;1630962;86;21252;-55
2022/08/15 12:10:17;;;;;;;7.58;4.20;;;;;;;30.99;48.61;99957.11;1751458;81;21431;-56
2022/08/15 12:13:27;;;;;;;16.10;4.47;;;;;;;31.00;48.55;99948.91;1766295;81;21411;-56
2022/08/15 12:16:37;;;;;;;8.58;4.20;;;;;;;31.03;48.50;99945.43;1744396;80;21343;-54
2022/08/15 12:19:54;;;;;;;15.65;4.70;;;;;;;31.10;48.48;99948.63;1784789;79;21474;-55
2022/08/15 12:22:59;;;;;;;16.00;5.97;;;;;;;31.06;48.30;99941.95;1784986;80;21351;-54
2022/08/15 12:26:11;;;;;;;10.90;6.08;;;;;;;31.04;48.22;99934.36;1707437;84;21796;-55
2022/08/15 12:29:20;;;;;;;12.98;5.25;;;;;;;31.00;48.17;99943.25;1737772;82;21381;-57
2022/08/15 12:32:32;;;;;;;10.05;4.25;;;;;;;30.94;48.11;99938.88;1738032;82;21816;-56
2022/08/15 12:35:41;;;;;;;14.35;5.37;;;;;;;30.90;48.04;99936.42;1716392;82;21753;-56
2022/08/15 12:38:49;;;;;;;14.23;7.62;;;;;;;30.87;47.99;99937.91;1746920;82;21209;-53
2022/08/15 12:41:57;;;;;;;12.33;5.00;;;;;;;30.80;47.96;99934.67;1784961;80;21209;-54
2022/08/15 12:45:22;;;;;;;10.25;5.20;;;;;;;30.72;47.91;99935.97;1783115;80;21185;-56
2022/08/15 12:48:34;;;;;;;8.25;4.33;;;;;;;30.65;47.89;99933.02;1784837;80;21248;-55
2022/08/15 12:51:44;;;;;;;11.73;5.12;;;;;;;30.63;47.96;99935.34;1785638;80;21279;-54
2022/08/15 12:54:57;;;;;;;11.12;4.75;;;;;;;30.63;47.90;99936.76;1775018;80;21256;-55
2022/08/15 12:58:07;;;;;;;9.25;4.90;;;;;;;30.62;47.91;99934.22;1783960;80;21579;-56
2022/08/15 13:01:15;;;;;;;11.65;4.45;;;;;;;30.68;47.90;99929.30;1785030;80;21268;-56
2022/08/15 13:04:24;;;;;;;10.72;4.90;;;;;;;30.73;47.92;99929.18;1778247;80;21652;-51
2022/08/15 13:07:31;;;;;;;11.85;4.70;;;;;;;30.79;47.91;99920.86;1731045;82;21215;-55
2022/08/15 13:10:42;;;;;;;11.30;4.90;;;;;;;30.84;47.87;99917.92;1789504;79;21207;-53
2022/08/15 13:13:50;;;;;;;8.50;4.70;;;;;;;30.93;47.82;99919.66;1788853;80;21255;-54
2022/08/15 13:16:56;;;;;;;10.13;4.92;;;;;;;30.97;47.72;99915.61;1798508;77;21180;-58
2022/08/15 13:23:40;;;;;;;12.63;4.95;;;;;;;31.05;47.60;99911.41;1818159;78;21170;-56
2022/08/15 13:26:49;;;;;;;11.18;4.85;;;;;;;31.05;47.46;99907.77;1822068;78;21758;-54
2022/08/15 13:29:57;;;;;;;10.45;4.33;;;;;;;30.97;47.33;99899.46;1821756;78;21606;-55
2022/08/15 13:33:09;;;;;;;8.03;4.35;;;;;;;30.92;47.33;99899.59;1821568;78;21193;-56
2022/08/15 13:36:17;;;;;;;8.73;4.28;;;;;;;30.86;47.31;99905.72;1820547;78;21204;-55
2022/08/15 13:39:29;;;;;;;;;;;;;;;30.82;47.33;99897.60;1794042;78;21203;-57
2022/08/15 13:42:43;;;;;;;10.85;4.65;;;;;;;30.82;47.37;99893.36;1814497;77;20271;-57
2022/08/15 13:45:51;;;;;;;8.58;4.45;;;;;;;30.81;47.32;99893.12;1813945;78;21320;-56
2022/08/15 13:49:04;;;;;;;8.38;4.15;;;;;;;30.87;47.36;99887.02;1816856;78;21347;-56
2022/08/15 13:52:14;;;;;;;9.80;4.40;;;;;;;30.96;47.31;99878.01;1814089;77;21767;-56
2022/08/15 13:55:26;;;;;;;13.38;5.12;;;;;;;31.06;47.25;99885.39;1819712;78;21231;-54
2022/08/15 13:58:38;;;;;;;11.88;4.92;;;;;;;31.12;47.21;99881.27;1811693;77;21179;-55
2022/08/15 14:02:01;;;;;;;11.60;4.92;;;;;;;31.24;47.24;99885.17;1848375;77;21709;-55
2022/08/15 14:05:16;;;;;;;11.12;5.12;;;;;;;31.44;47.16;99876.75;1823290;77;21232;-55
2022/08/15 14:08:26;;;;;;;20.02;5.83;;;;;;;31.56;47.09;99876.95;1820496;78;21399;-55
2022/08/15 14:11:33;;;;;;;13.32;5.12;;;;;;;31.71;47.03;99875.94;1801038;78;21213;-55
2022/08/15 14:14:41;;;;;;;10.48;5.03;;;;;;;31.75;46.87;99879.80;1768782;81;21817;-55
2022/08/15 14:17:49;;;;;;;8.40;4.08;;;;;;;31.74;46.83;99875.88;1769051;81;21185;-56
2022/08/15 14:21:00;;;;;;;8.98;4.30;;;;;;;31.72;46.77;99873.38;1772501;80;21233;-56
2022/08/15 14:24:12;;;;;;;7.83;4.58;;;;;;;31.66;46.71;99875.27;1792728;79;21427;-57
2022/08/15 14:27:14;;;;;;;10.53;4.75;;;;;;;31.65;46.72;99871.59;1800361;79;21194;-56
2022/08/15 14:30:35;;;;;;;16.82;4.75;;;;;;;31.60;46.67;99870.92;1802544;79;21197;-56
2022/08/15 14:33:42;;;;;;;17.02;5.67;;;;;;;31.55;46.59;99869.07;1802923;79;21190;-57
2022/08/15 14:36:50;;;;;;;12.43;5.67;;;;;;;31.49;46.60;99874.59;1801950;78;21964;-56
2022/08/15 14:39:59;;;;;;;15.78;6.20;;;;;;;31.42;46.53;99869.16;1801460;79;21710;-56
2022/08/15 14:43:05;;;;;;;13.88;6.53;;;;;;;31.35;46.52;99869.62;1800803;79;21178;-57
2022/08/15 14:46:13;;;;;;;11.48;5.37;;;;;;;31.24;46.40;99871.63;1800977;79;21218;-58
2022/08/15 14:49:21;;;;;;;13.83;5.85;;;;;;;31.13;46.38;99862.56;1785319;79;21170;-57
2022/08/15 14:52:30;;;;;;;11.03;5.97;;;;;;;31.07;46.34;99861.59;1801038;79;21532;-57
2022/08/15 14:55:42;;;;;;;8.20;5.12;;;;;;;30.96;46.29;99861.61;1770092;81;21188;-56
2022/08/15 14:58:50;;;;;;;12.68;6.30;;;;;;;30.90;46.29;99868.56;1792201;78;21172;-57
2022/08/15 15:01:58;;;;;;;10.93;6.72;;;;;;;30.81;46.29;99864.84;1776061;79;21217;-56
2022/08/15 15:05:05;;;;;;;11.60;6.60;;;;;;;30.71;46.29;99857.99;1792182;79;21336;-57
2022/08/15 15:08:13;;;;;;;13.68;6.80;;;;;;;30.56;46.28;99854.39;1801633;79;21707;-57
2022/08/15 15:11:21;;;;;;;16.60;6.55;;;;;;;30.43;46.33;99855.84;1806956;78;21314;-56
2022/08/15 15:14:29;;;;;;;10.08;6.08;;;;;;;30.26;46.29;99852.30;1810413;78;21245;-57
2022/08/15 15:17:39;;;;;;;14.03;6.60;;;;;;;30.11;46.36;99848.36;1810433;79;21178;-59
2022/08/15 15:20:44;;;;;;;16.93;6.85;;;;;;;30.00;46.49;99845.51;1822435;78;21200;-58
2022/08/15 15:23:54;;;;;;;11.97;6.67;;;;;;;29.95;46.55;99840.57;1843310;76;21747;-58
2022/08/15 15:27:02;;;;;;;11.75;6.75;;;;;;;29.84;46.53;99836.30;1843641;78;21160;-59
2022/08/15 15:30:10;;;;;;;9.00;6.35;;;;;;;29.68;46.52;99824.51;1808908;79;21237;-58
2022/08/15 15:33:18;;;;;;;12.75;6.28;;;;;;;29.55;46.62;99830.11;1810083;77;21216;-57
2022/08/15 15:36:36;;;;;;;15.40;5.92;;;;;;;29.45;46.56;99830.34;1806156;79;21192;-57
2022/08/15 15:39:42;;;;;;;13.65;6.80;;;;;;;29.33;46.78;99818.16;1796212;77;21742;-58
2022/08/15 15:42:49;;;;;;;12.95;6.55;;;;;;;29.20;46.83;99814.74;1812055;78;21749;-58
2022/08/15 15:45:55;;;;;;;9.85;5.97;;;;;;;29.14;46.93;99811.77;1812899;78;21248;-56
2022/08/15 15:49:07;;;;;;;12.47;7.08;;;;;;;28.99;47.13;99807.22;1810795;79;21229;-57
2022/08/15 15:52:20;;;;;;;13.78;5.72;;;;;;;28.99;47.13;99807.22;1809266;77;21425;-57
2022/08/15 15:55:29;;;;;;;10.50;5.92;;;;;;;28.95;47.11;99809.56;1778832;79;21256;-58
2022/08/15 15:58:38;;;;;;;12.73;6.25;;;;;;;28.88;47.16;99813.34;1779244;80;21797;-59
2022/08/15 16:01:48;;;;;;;10.82;6.30;;;;;;;28.83;47.22;99807.79;1778556;79;21217;-59
2022/08/15 16:04:55;;;;;;;9.55;5.53;;;;;;;28.78;47.27;99805.09;1807943;77;21174;-58
2022/08/15 16:08:04;;;;;;;10.68;5.25;;;;;;;28.74;47.33;99809.66;1808081;77;21260;-57
2022/08/15 16:11:30;;;;;;;10.93;5.78;;;;;;;28.71;47.37;99811.69;1794666;79;21355;-57
2022/08/15 16:14:43;;;;;;;13.35;5.22;;;;;;;28.65;47.42;99809.55;1782990;79;21234;-58
2022/08/15 16:17:52;;;;;;;;;;;;;;;28.61;47.46;99813.26;1786307;80;21262;-57
2022/08/15 16:21:02;;;;;;;10.90;5.08;;;;;;;28.53;47.53;99806.36;1719017;82;20567;-57
2022/08/15 16:24:18;;;;;;;9.77;4.93;;;;;;;28.48;47.60;99811.25;1736156;82;21254;-57
2022/08/15 16:27:39;;;;;;;10.93;4.80;;;;;;;28.44;47.66;99810.99;1734917;82;21186;-57
2022/08/15 16:31:03;;;;;;;7.47;4.58;;;;;;;28.42;47.69;99808.20;1716972;82;21254;-57
2022/08/15 16:34:18;;;;;;;9.18;4.72;;;;;;;28.38;47.71;99810.81;1737329;82;21278;-56
2022/08/15 16:37:29;;;;;;;9.83;4.55;;;;;;;28.37;47.75;99808.30;1737048;82;21253;-58
2022/08/15 16:40:51;;;;;;;11.10;5.25;;;;;;;28.35;47.75;99811.40;1763257;80;21254;-58
2022/08/15 16:44:00;;;;;;;16.05;6.03;;;;;;;28.33;47.71;99804.41;1779397;80;21337;-57
2022/08/15 16:47:36;;;;;;;9.90;4.87;;;;;;;28.32;47.73;99809.79;1785529;80;21767;-58
2022/08/15 16:51:06;;;;;;;7.53;4.37;;;;;;;28.29;47.74;99807.59;1786890;79;21232;-55
2022/08/15 16:54:32;;;;;;;11.60;4.95;;;;;;;28.28;47.76;99806.74;1785790;80;21231;-57
2022/08/15 16:58:14;;;;;;;9.58;4.17;;;;;;;28.27;47.71;99802.27;1784453;80;21274;-58
2022/08/15 17:01:47;;;;;;;11.40;3.98;;;;;;;28.26;47.69;99800.58;1788336;78;21203;-60
2022/08/15 17:05:14;;;;;;;10.23;4.40;;;;;;;28.26;47.67;99805.39;1785892;80;21259;-63
2022/08/15 17:09:03;;;;;;;6.35;3.37;;;;;;;28.24;47.66;99795.81;1781214;80;21692;-58
2022/08/15 17:12:40;;;;;;;14.23;4.40;;;;;;;28.25;47.62;99793.28;1785499;80;21258;-58
2022/08/15 17:16:25;;;;;;;6.55;3.95;;;;;;;28.26;47.61;99786.50;1738700;82;21222;-57
2022/08/15 17:19:53;;;;;;;9.30;4.00;;;;;;;28.27;47.56;99791.56;1768743;80;21722;-59
2022/08/15 17:23:15;;;;;;;14.68;5.08;;;;;;;28.30;47.50;99796.58;1772868;79;21741;-62
2022/08/15 17:26:24;;;;;;;13.38;5.30;;;;;;;28.29;47.42;99797.73;1786113;78;21212;-57
2022/08/15 17:29:51;;;;;;;9.90;5.42;;;;;;;28.28;47.33;99790.41;1792862;79;21711;-57
2022/08/15 17:33:03;;;;;;;10.90;5.60;;;;;;;28.28;47.28;99799.70;1762355;81;21196;-57
2022/08/15 17:36:12;;;;;;;11.80;5.17;;;;;;;28.29;47.21;99796.33;1747987;82;21892;-57
2022/08/15 17:39:29;;;;;;;22.82;6.25;;;;;;;28.29;47.17;99807.59;1782498;79;21237;-57
2022/08/15 17:42:38;;;;;;;22.27;5.00;;;;;;;28.28;47.05;99805.89;1796894;79;21210;-57
2022/08/15 17:45:45;;;;;;;8.43;4.03;;;;;;;28.27;47.01;99801.42;1800003;79;21249;-56
2022/08/15 17:49:02;;;;;;;13.80;4.78;;;;;;;28.32;46.97;99804.16;1779156;79;21174;-56
2022/08/15 17:52:18;;;;;;;8.68;4.50;;;;;;;28.36;46.91;99796.20;1798856;79;21233;-58
2022/08/15 17:55:32;;;;;;;12.55;4.80;;;;;;;28.36;46.81;99800.98;1794520;78;21193;-57
2022/08/15 17:58:54;;;;;;;9.25;4.40;;;;;;;28.34;46.71;99792.84;1729847;82;21206;-59
2022/08/15 18:01:59;;;;;;;8.78;4.10;;;;;;;28.37;46.69;99816.75;1700553;84;21207;-56
2022/08/15 18:05:07;;;;;;;12.95;4.72;;;;;;;28.35;46.59;99800.13;1700403;83;21223;-58
2022/08/15 18:08:14;;;;;;;18.48;4.40;;;;;;;28.33;46.51;99801.59;1718892;82;21195;-58
2022/08/15 18:11:20;;;;;;;9.73;4.72;;;;;;;28.30;46.41;99804.47;1744943;82;21259;-58
2022/08/15 18:14:27;;;;;;;12.10;3.80;;;;;;;28.27;46.34;99802.27;1741735;78;21209;-57
2022/08/15 18:17:39;;;;;;;11.28;4.60;;;;;;;28.24;46.29;99806.26;1798317;79;21538;-58
2022/08/15 18:20:57;;;;;;;9.20;4.10;;;;;;;28.21;46.22;99799.23;1784029;78;21358;-58
2022/08/15 18:24:07;;;;;;;11.18;4.15;;;;;;;28.20;46.16;99793.91;1782296;80;21554;-59
2022/08/15 18:27:27;;;;;;;11.70;4.30;;;;;;;28.17;46.11;99791.71;1791863;80;21217;-58
2022/08/15 18:30:41;;;;;;;7.40;4.00;;;;;;;28.14;46.07;99790.92;1792500;80;21614;-58
2022/08/15 18:33:53;;;;;;;9.15;3.90;;;;;;;28.10;46.04;99801.13;1792856;80;21204;-56
2022/08/15 18:37:03;;;;;;;12.37;4.60;;;;;;;28.08;45.99;99795.81;1792201;80;21331;-56
2022/08/15 18:43:43;;;;;;;10.60;4.10;;;;;;;28.06;45.96;99794.42;1799642;79;21189;-57
2022/08/15 18:47:17;;;;;;;11.43;4.05;;;;;;;28.03;45.90;99788.00;1770616;81;21644;-58
2022/08/15 18:50:30;;;;;;;11.77;4.50;;;;;;;28.00;45.85;99788.05;1751891;79;21801;-56
2022/08/15 18:53:39;;;;;;;7.53;3.92;;;;;;;27.96;45.78;99788.37;1800837;79;21332;-56
2022/08/15 18:57:04;;;;;;;7.97;4.12;;;;;;;27.92;45.75;99797.17;1783656;79;21507;-58
2022/08/15 19:00:32;;;;;;;7.17;3.90;;;;;;;27.89;45.70;99799.75;1800928;79;21198;-57
2022/08/15 19:03:38;;;;;;;10.00;4.12;;;;;;;27.83;45.66;99802.59;1801173;79;21191;-57
2022/08/15 19:06:53;;;;;;;10.68;4.55;;;;;;;27.80;45.63;99804.61;1801687;79;21174;-59
2022/08/15 19:10:06;;;;;;;10.78;3.83;;;;;;;27.78;45.61;99794.81;1780508;79;21249;-57
2022/08/15 19:13:28;;;;;;;12.50;4.05;;;;;;;27.74;45.56;99793.73;1797089;79;21197;-58
2022/08/15 19:16:43;;;;;;;;;;;;;;;27.73;45.55;99797.09;1804664;79;21169;-57
2022/08/15 19:20:08;;;;;;;8.50;4.17;;;;;;;27.72;45.52;99805.84;1741714;82;20207;-55
2022/08/15 19:23:17;;;;;;;9.08;3.70;;;;;;;27.69;45.48;99806.45;1737072;82;21214;-56
2022/08/15 19:26:52;;;;;;;5.75;3.62;;;;;;;27.66;45.44;99804.24;1751052;80;21215;-58
2022/08/15 19:30:03;;;;;;;9.43;3.98;;;;;;;27.64;45.39;99810.17;1766842;81;21743;-57
2022/08/15 19:33:21;;;;;;;10.05;3.70;;;;;;;27.60;45.35;99812.48;1767023;81;21233;-58
2022/08/15 19:36:41;;;;;;;6.80;3.27;;;;;;;27.58;45.33;99804.35;1822210;78;21196;-57
2022/08/15 19:40:05;;;;;;;8.05;3.35;;;;;;;27.57;45.30;99797.06;1787799;79;21705;-58
2022/08/15 19:43:39;;;;;;;12.30;3.22;;;;;;;27.56;45.26;99798.19;1760030;80;21727;-59
2022/08/15 19:47:19;;;;;;;6.22;3.30;;;;;;;27.55;45.17;99789.49;1828585;78;21379;-57
2022/08/15 19:53:59;;;;;;;7.90;3.80;;;;;;;27.54;45.09;99790.61;1829452;78;21163;-59
2022/08/15 19:57:21;;;;;;;7.85;3.35;;;;;;;27.54;45.06;99794.83;1829174;78;21233;-57
2022/08/15 20:00:48;;;;;;;5.17;3.35;;;;;;;27.54;45.02;99789.20;1827682;78;21193;-57
2022/08/15 20:04:08;;;;;;;7.00;3.45;;;;;;;27.52;44.96;99794.87;1828956;78;21176;-58
2022/08/15 20:07:28;;;;;;;6.58;3.45;;;;;;;27.49;44.91;99783.67;1828636;78;21351;-57
2022/08/15 20:11:07;;;;;;;9.63;3.92;;;;;;;27.46;44.83;99784.24;1829296;78;21210;-58
2022/08/15 20:14:25;;;;;;;6.67;3.35;;;;;;;27.43;44.79;99782.63;1829144;78;21174;-55
2022/08/15 20:17:52;;;;;;;6.95;3.15;;;;;;;27.42;44.76;99784.59;1812487;78;21244;-56
2022/08/15 20:21:30;;;;;;;9.23;3.42;;;;;;;27.39;44.73;99779.57;1814802;78;21185;-57
2022/08/15 20:24:49;;;;;;;5.67;3.20;;;;;;;27.39;44.71;99776.76;1813209;78;21320;-57
2022/08/15 20:27:56;;;;;;;9.28;3.08;;;;;;;27.41;44.69;99781.52;1812594;78;21229;-57
2022/08/15 20:31:10;;;;;;;9.30;3.55;;;;;;;27.39;44.62;99779.57;1812389;78;21209;-58
2022/08/15 20:34:18;;;;;;;10.35;3.47;;;;;;;27.38;44.56;99790.56;1812383;78;21185;-58
2022/08/15 20:37:31;;;;;;;5.75;3.12;;;;;;;27.36;44.52;99782.98;1793904;79;21174;-56
2022/08/15 20:40:51;;;;;;;8.20;3.35;;;;;;;27.34;44.49;99789.47;1812108;78;21210;-57
2022/08/15 20:44:14;;;;;;;8.40;3.15;;;;;;;27.33;44.43;99785.55;1812417;78;21154;-58
2022/08/15 20:47:54;;;;;;;7.55;3.40;;;;;;;27.28;44.39;99786.46;1812218;78;21185;-57
2022/08/15 20:51:03;;;;;;;7.67;3.35;;;;;;;27.24;44.32;99793.77;1812103;78;21205;-59
2022/08/15 20:54:10;;;;;;;8.20;3.33;;;;;;;27.19;44.32;99790.19;1812291;78;21181;-57
2022/08/15 20:57:20;;;;;;;10.28;3.52;;;;;;;27.14;44.29;99791.09;1793980;79;21383;-57
2022/08/15 21:00:27;;;;;;;8.23;3.58;;;;;;;27.08;44.29;99790.89;1813348;78;21209;-58
2022/08/15 21:03:36;;;;;;;9.55;3.65;;;;;;;27.03;44.26;99789.53;1792554;78;21167;-58
2022/08/15 21:06:58;;;;;;;5.53;3.30;;;;;;;26.99;44.27;99785.63;1811300;78;21398;-58
2022/08/15 21:10:07;;;;;;;6.70;3.35;;;;;;;26.97;44.25;99792.69;1812224;79;21177;-58
2022/08/15 21:13:38;;;;;;;14.47;3.47;;;;;;;26.93;44.26;99789.63;1812265;78;21256;-57
2022/08/15 21:17:13;;;;;;;8.63;3.50;;;;;;;26.89;44.28;99793.34;1811730;78;21197;-58
2022/08/15 21:20:39;;;;;;;7.90;3.25;;;;;;;26.86;44.27;99792.53;1812199;79;21671;-57
2022/08/15 21:23:48;;;;;;;8.00;3.35;;;;;;;26.81;44.26;99795.39;1812188;78;21170;-57
2022/08/15 21:27:01;;;;;;;7.00;3.55;;;;;;;26.76;44.26;99799.09;1812099;79;21189;-56
2022/08/15 21:30:51;;;;;;;8.53;3.40;;;;;;;26.72;44.26;99795.17;1813463;78;21789;-57
2022/08/15 21:34:03;;;;;;;9.40;3.55;;;;;;;26.69;44.27;99796.36;1812189;78;21413;-58
2022/08/15 21:37:31;;;;;;;7.60;3.00;;;;;;;26.65;44.28;99796.11;1811708;78;21225;-58
2022/08/15 21:40:48;;;;;;;13.03;3.50;;;;;;;26.63;44.32;99789.91;1812975;78;21228;-57
2022/08/15 21:44:31;;;;;;;6.58;2.98;;;;;;;26.59;44.30;99798.66;1815341;78;21220;-57
2022/08/15 21:47:45;;;;;;;6.20;3.55;;;;;;;26.55;44.32;99803.73;1736565;79;21224;-58
2022/08/15 21:50:59;;;;;;;4.60;3.22;;;;;;;26.49;44.36;99805.77;1812145;78;21281;-57
2022/08/15 21:54:19;;;;;;;6.33;2.72;;;;;;;26.45;44.35;99797.63;1812247;78;21182;-58
2022/08/15 21:57:50;;;;;;;7.40;3.52;;;;;;;26.41;44.37;99803.02;1812275;79;21351;-58
2022/08/15 22:00:57;;;;;;;10.18;3.60;;;;;;;26.40;44.43;99804.72;1812511;78;21194;-57
2022/08/15 22:04:32;;;;;;;9.35;3.20;;;;;;;26.36;44.45;99798.85;1812455;78;21170;-58
2022/08/15 22:07:39;;;;;;;5.22;2.98;;;;;;;26.34;44.42;99797.45;1812413;78;21315;-57
2022/08/15 22:10:47;;;;;;;6.42;3.08;;;;;;;26.30;44.46;99790.77;1811442;79;21213;-56
2022/08/15 22:13:56;;;;;;;11.93;3.67;;;;;;;26.29;44.47;99792.72;1813779;78;21162;-56
2022/08/15 22:17:05;;;;;;;8.43;3.45;;;;;;;26.26;44.49;99792.45;1812620;78;21339;-57
2022/08/15 22:20:15;;;;;;;7.40;3.08;;;;;;;26.23;44.51;99791.09;1833453;78;21142;-57
2022/08/15 22:23:22;;;;;;;9.15;3.40;;;;;;;26.20;44.54;99799.25;1837895;78;21232;-57
2022/08/15 22:26:33;;;;;;;12.47;4.42;;;;;;;26.17;44.55;99805.45;1826995;78;21371;-57
2022/08/15 22:29:44;;;;;;;10.10;3.77;;;;;;;26.12;44.57;99799.31;1827043;78;21175;-57
2022/08/15 22:32:53;;;;;;;13.30;3.58;;;;;;;26.11;44.59;99808.02;1827201;78;21222;-58
2022/08/15 22:35:59;;;;;;;8.55;3.70;;;;;;;26.09;44.60;99812.52;1826528;78;21249;-57
2022/08/15 22:39:07;;;;;;;8.75;3.80;;;;;;;26.05;44.59;99801.59;1826504;78;21175;-57
2022/08/15 22:42:16;;;;;;;6.37;3.40;;;;;;;26.04;44.63;99813.11;1826987;78;21187;-58
2022/08/15 22:45:27;;;;;;;9.05;3.77;;;;;;;26.00;44.63;99812.88;1826492;78;21221;-57
2022/08/15 22:48:34;;;;;;;10.60;3.87;;;;;;;25.98;44.66;99817.89;1827027;78;21194;-57
2022/08/15 22:51:52;;;;;;;7.70;3.83;;;;;;;25.96;44.68;99815.09;1811034;78;21199;-58
2022/08/15 22:54:58;;;;;;;8.93;4.08;;;;;;;25.93;44.69;99821.28;1826549;78;21214;-57
2022/08/15 22:58:06;;;;;;;12.35;3.90;;;;;;;25.91;44.72;99824.97;1826530;78;21150;-58
2022/08/15 23:01:13;;;;;;;7.92;4.60;;;;;;;25.90;44.74;99829.73;1811271;78;21202;-59
2022/08/15 23:04:32;;;;;;;7.47;4.60;;;;;;;25.88;44.75;99824.11;1826523;78;21221;-58
2022/08/15 23:08:05;;;;;;;9.58;4.25;;;;;;;25.85;44.76;99824.14;1826611;78;21179;-58
2022/08/15 23:11:28;;;;;;;13.45;5.15;;;;;;;25.84;44.75;99832.29;1816766;78;21217;-58
2022/08/15 23:14:43;;;;;;;12.63;4.47;;;;;;;25.83;44.75;99833.98;1808913;78;21230;-56
2022/08/15 23:18:01;;;;;;;10.35;5.12;;;;;;;25.82;44.77;99840.70;1811113;78;21166;-58
2022/08/15 23:21:07;;;;;;;9.13;4.47;;;;;;;25.84;44.79;99829.48;1811811;78;21225;-57
2022/08/15 23:24:17;;;;;;;16.00;5.25;;;;;;;25.88;44.82;99839.54;1812275;78;21169;-58
2022/08/15 23:27:27;;;;;;;9.18;4.97;;;;;;;25.95;44.82;99844.28;1813161;78;21336;-57
2022/08/15 23:30:37;;;;;;;13.28;5.05;;;;;;;26.01;44.81;99851.56;1813749;78;21209;-57
2022/08/15 23:33:47;;;;;;;8.73;5.12;;;;;;;26.08;44.78;99847.34;1812741;78;21166;-58
2022/08/15 23:36:58;;;;;;;14.25;5.87;;;;;;;26.16;44.77;99845.88;1812157;79;21161;-58
2022/08/15 23:40:26;;;;;;;9.03;5.20;;;;;;;26.22;44.71;99842.75;1813045;78;21253;-59
2022/08/15 23:43:32;;;;;;;10.85;5.65;;;;;;;26.27;44.64;99850.29;1812389;78;21256;-58
2022/08/15 23:46:40;;;;;;;14.75;5.50;;;;;;;26.29;44.58;99857.86;1811638;79;21201;-56
2022/08/15 23:49:50;;;;;;;12.58;5.80;;;;;;;26.32;44.54;99853.06;1813421;78;21205;-58
2022/08/15 23:52:58;;;;;;;16.95;5.80;;;;;;;26.33;44.49;99858.38;1813002;78;21202;-57
2022/08/15 23:56:06;;;;;;;11.95;5.95;;;;;;;26.34;44.42;99867.62;1812093;79;21194;-57
2022/08/15 23:59:17;;;;;;;12.93;6.10;;;;;;;26.33;44.37;99872.97;1811575;79;21260;-56
